createdAt,value
2022-09-03T00:02:21.497Z,37.67
2022-09-03T00:04:57.324Z,37.66
2022-09-03T00:07:31.332Z,37.84
2022-09-03T00:10:03.582Z,37.27
2022-09-03T00:12:35.906Z,37.76
2022-09-03T00:15:07.481Z,37.79
2022-09-03T00:17:39.692Z,37.72
2022-09-03T00:20:12.739Z,37.85
2022-09-03T00:22:42.255Z,38.22
2022-09-03T00:25:14.610Z,37.76
2022-09-03T00:27:45.335Z,37.91
2022-09-03T00:30:17.262Z,37.85
2022-09-03T00:32:48.792Z,37.88
2022-09-03T00:35:18.939Z,37.91
2022-09-03T00:37:46.858Z,37.78
2022-09-03T00:40:34.692Z,37.86
2022-09-03T00:43:07.167Z,37.82
2022-09-03T00:45:39.436Z,37.88
2022-09-03T00:48:17.480Z,38.16
2022-09-03T00:51:00.262Z,38.01
2022-09-03T00:53:34.738Z,37.76
2022-09-03T00:56:12.122Z,37.91
2022-09-03T00:58:48.737Z,37.92
2022-09-03T01:01:21.898Z,37.99
2022-09-03T01:03:59.579Z,38.02
2022-09-03T01:06:34.252Z,38.43
2022-09-03T01:09:13.984Z,38.29
2022-09-03T01:11:54.654Z,38.04
2022-09-03T01:14:32.184Z,38.58
2022-09-03T01:17:04.319Z,38.35
2022-09-03T01:19:53.244Z,38.53
2022-09-03T01:22:38.561Z,38.26
2022-09-03T01:25:17.670Z,38.48
2022-09-03T01:28:03.061Z,38.75
2022-09-03T01:30:32.799Z,38.43
2022-09-03T01:33:04.456Z,38.86
2022-09-03T01:35:36.130Z,38.97
2022-09-03T01:38:13.817Z,39.37
2022-09-03T01:40:48.187Z,39.53
2022-09-03T01:43:37.943Z,40.59
2022-09-03T01:46:14.043Z,40.50
2022-09-03T01:48:47.463Z,40.67
2022-09-03T01:51:21.051Z,41.16
2022-09-03T01:54:04.798Z,41.32
2022-09-03T01:56:43.769Z,41.19
2022-09-03T01:59:21.242Z,41.21
2022-09-03T02:01:56.895Z,41.32
2022-09-03T02:04:27.085Z,41.32
2022-09-03T02:06:57.483Z,41.37
2022-09-03T02:09:30.850Z,41.73
2022-09-03T02:12:04.784Z,41.59
2022-09-03T02:14:34.048Z,41.65
2022-09-03T02:17:03.413Z,42.46
2022-09-03T02:19:31.647Z,42.98
2022-09-03T02:21:59.618Z,43.24
2022-09-03T02:24:28.962Z,43.66
2022-09-03T02:26:57.555Z,43.80
2022-09-03T02:29:25.866Z,44.00
2022-09-03T02:31:56.927Z,44.76
2022-09-03T02:34:24.994Z,45.11
2022-09-03T02:36:54.552Z,45.08
2022-09-03T02:39:22.435Z,45.07
2022-09-03T02:41:52.919Z,45.21
2022-09-03T02:44:27.247Z,45.41
2022-09-03T02:47:00.304Z,45.66
2022-09-03T02:49:28.644Z,46.02
2022-09-03T02:52:00.856Z,46.59
2022-09-03T02:54:29.242Z,46.40
2022-09-03T02:56:57.142Z,46.63
2022-09-03T02:59:25.128Z,46.86
2022-09-03T03:01:52.998Z,46.78
2022-09-03T03:04:23.558Z,46.64
2022-09-03T03:06:51.740Z,47.07
2022-09-03T03:09:19.900Z,46.92
2022-09-03T03:11:50.609Z,47.95
2022-09-03T03:14:18.566Z,47.97
2022-09-03T03:16:46.570Z,47.84
2022-09-03T03:19:14.452Z,47.42
2022-09-03T03:21:43.927Z,46.74
2022-09-03T03:24:12.195Z,46.62
2022-09-03T03:26:40.269Z,46.37
2022-09-03T03:29:08.212Z,45.85
2022-09-03T03:31:36.202Z,45.79
2022-09-03T03:34:04.669Z,46.37
2022-09-03T03:36:34.030Z,46.63
2022-09-03T03:39:03.615Z,46.18
2022-09-03T03:41:34.266Z,46.11
2022-09-03T03:44:03.723Z,46.30
2022-09-03T03:46:33.253Z,46.72
2022-09-03T03:49:01.391Z,46.31
2022-09-03T03:51:30.453Z,45.99
2022-09-03T03:54:04.333Z,46.69
2022-09-03T03:56:35.344Z,47.25
2022-09-03T03:59:03.681Z,47.41
2022-09-03T04:01:31.727Z,47.72
2022-09-03T04:04:01.040Z,47.33
2022-09-03T04:06:29.638Z,47.59
2022-09-03T04:08:57.647Z,48.12
2022-09-03T04:11:26.176Z,47.84
2022-09-03T04:13:55.650Z,47.75
2022-09-03T04:16:24.824Z,48.12
2022-09-03T04:18:53.766Z,47.82
2022-09-03T04:21:23.187Z,47.65
2022-09-03T04:23:52.436Z,48.38
2022-09-03T04:26:22.679Z,48.21
2022-09-03T04:28:50.647Z,48.51
2022-09-03T04:31:21.469Z,48.77
2022-09-03T04:33:49.699Z,48.57
2022-09-03T04:36:19.365Z,48.36
2022-09-03T04:38:48.577Z,48.67
2022-09-03T04:41:18.370Z,49.13
2022-09-03T04:43:51.520Z,49.07
2022-09-03T04:46:22.418Z,49.72
2022-09-03T04:48:52.226Z,50.30
2022-09-03T04:51:22.006Z,50.99
2022-09-03T04:53:55.627Z,51.15
2022-09-03T04:56:24.945Z,51.29
2022-09-03T04:58:56.431Z,51.75
2022-09-03T05:01:27.224Z,52.11
2022-09-03T05:03:56.614Z,52.70
2022-09-03T05:06:25.609Z,52.66
2022-09-03T05:08:54.757Z,52.84
2022-09-03T05:11:23.589Z,53.02
2022-09-03T05:13:52.573Z,52.90
2022-09-03T05:16:21.006Z,52.47
2022-09-03T05:18:54.057Z,52.17
2022-09-03T05:21:22.705Z,51.93
2022-09-03T05:23:51.531Z,51.95
2022-09-03T05:26:21.021Z,51.82
2022-09-03T05:28:49.292Z,52.43
2022-09-03T05:31:19.168Z,52.51
2022-09-03T05:33:48.331Z,52.05
2022-09-03T05:36:19.177Z,51.88
2022-09-03T05:38:48.532Z,51.40
2022-09-03T05:41:18.997Z,50.68
2022-09-03T05:43:52.449Z,51.08
2022-09-03T05:46:20.444Z,50.76
2022-09-03T05:48:48.636Z,49.66
2022-09-03T05:51:20.401Z,49.59
2022-09-03T05:53:50.164Z,50.04
2022-09-03T05:56:19.669Z,49.78
2022-09-03T05:58:48.887Z,49.75
2022-09-03T06:01:18.302Z,49.79
2022-09-03T06:03:47.549Z,48.97
2022-09-03T06:06:17.428Z,48.70
2022-09-03T06:08:45.401Z,48.67
2022-09-03T06:11:13.330Z,48.36
2022-09-03T06:13:41.401Z,47.88
2022-09-03T06:16:09.586Z,47.85
2022-09-03T06:18:37.563Z,47.02
2022-09-03T06:21:07.470Z,46.55
2022-09-03T06:23:37.256Z,46.29
2022-09-03T06:26:09.012Z,45.89
2022-09-03T06:28:40.528Z,45.92
2022-09-03T06:31:09.869Z,46.00
2022-09-03T06:33:39.406Z,46.10
2022-09-03T06:36:09.081Z,45.87
2022-09-03T06:38:39.463Z,45.35
2022-09-03T06:41:09.276Z,44.92
2022-09-03T06:43:38.622Z,44.36
2022-09-03T06:46:08.646Z,44.38
2022-09-03T06:48:38.305Z,44.36
2022-09-03T06:51:08.293Z,44.42
2022-09-03T06:53:39.165Z,44.00
2022-09-03T06:56:08.522Z,42.93
2022-09-03T06:58:42.913Z,42.63
2022-09-03T07:01:12.861Z,41.53
2022-09-03T07:03:42.252Z,41.73
2022-09-03T07:06:11.646Z,41.30
2022-09-03T07:08:42.497Z,40.96
2022-09-03T07:11:11.945Z,40.73
2022-09-03T07:13:41.768Z,40.72
2022-09-03T07:16:11.093Z,40.25
2022-09-03T07:18:39.273Z,40.84
2022-09-03T07:21:09.412Z,40.68
2022-09-03T07:23:38.840Z,41.12
2022-09-03T07:26:10.470Z,39.77
2022-09-03T07:28:39.933Z,39.57
2022-09-03T07:31:10.678Z,40.28
2022-09-03T07:33:38.898Z,39.27
2022-09-03T07:36:09.032Z,38.94
2022-09-03T07:38:38.025Z,39.48
2022-09-03T07:41:09.016Z,39.85
2022-09-03T07:43:40.040Z,39.91
2022-09-03T07:46:08.574Z,39.31
2022-09-03T07:48:37.724Z,39.26
2022-09-03T07:51:05.881Z,38.85
2022-09-03T07:53:34.246Z,38.22
2022-09-03T07:56:08.534Z,38.28
2022-09-03T07:58:37.371Z,38.40
2022-09-03T08:01:09.016Z,38.15
2022-09-03T08:03:41.403Z,38.16
2022-09-03T08:06:09.661Z,38.36
2022-09-03T08:08:38.414Z,38.33
2022-09-03T08:11:10.985Z,37.99
2022-09-03T08:13:40.836Z,38.19
2022-09-03T08:16:09.539Z,37.92
2022-09-03T08:18:39.426Z,39.04
2022-09-03T08:21:09.198Z,38.45
2022-09-03T08:23:38.991Z,38.39
2022-09-03T08:26:08.701Z,38.59
2022-09-03T08:28:36.840Z,39.01
2022-09-03T08:31:10.132Z,38.79
2022-09-03T08:33:38.384Z,37.60
2022-09-03T08:36:07.889Z,36.99
2022-09-03T08:38:36.757Z,35.59
2022-09-03T08:41:08.528Z,35.05
2022-09-03T08:43:42.754Z,34.36
2022-09-03T08:46:10.686Z,33.78
2022-09-03T08:48:38.524Z,33.50
2022-09-03T08:51:07.875Z,32.71
2022-09-03T08:53:45.289Z,31.48
2022-09-03T08:56:20.825Z,32.42
2022-09-03T08:58:48.872Z,31.20
2022-09-03T09:01:27.877Z,31.84
2022-09-03T09:04:04.073Z,32.39
2022-09-03T09:06:37.051Z,31.96
2022-09-03T09:09:11.733Z,32.40
2022-09-03T09:11:49.527Z,31.54
2022-09-03T09:14:21.497Z,30.74
2022-09-03T09:16:57.275Z,30.17
2022-09-03T09:19:36.924Z,30.20
2022-09-03T09:22:09.581Z,30.00
2022-09-03T09:24:41.518Z,30.13
2022-09-03T09:27:15.404Z,29.36
2022-09-03T09:29:45.434Z,29.53
2022-09-03T09:32:15.768Z,29.55
2022-09-03T09:34:44.938Z,29.58
2022-09-03T09:37:17.193Z,28.94
2022-09-03T09:39:56.824Z,29.71
2022-09-03T09:42:26.255Z,29.38
2022-09-03T09:44:54.515Z,29.44
2022-09-03T09:47:25.517Z,29.69
2022-09-03T09:49:55.949Z,28.08
2022-09-03T09:52:26.171Z,28.65
2022-09-03T09:54:55.912Z,29.36
2022-09-03T09:57:26.532Z,29.09
2022-09-03T10:00:06.772Z,29.53
2022-09-03T10:02:42.397Z,28.98
2022-09-03T10:05:15.966Z,28.72
2022-09-03T10:07:44.126Z,28.57
2022-09-03T10:10:19.597Z,29.09
2022-09-03T10:12:52.611Z,28.53
2022-09-03T10:15:25.110Z,28.53
2022-09-03T10:18:03.430Z,28.51
2022-09-03T10:20:37.352Z,28.43
2022-09-03T10:23:14.789Z,27.94
2022-09-03T10:25:56.032Z,27.77
2022-09-03T10:28:28.321Z,27.81
2022-09-03T10:31:11.747Z,27.31
2022-09-03T10:33:42.709Z,27.85
2022-09-03T10:36:15.507Z,28.54
2022-09-03T10:38:44.538Z,28.15
2022-09-03T10:41:24.283Z,28.59
2022-09-03T10:44:20.557Z,28.51
2022-09-03T10:46:58.392Z,27.05
2022-09-03T10:49:36.676Z,26.30
2022-09-03T10:52:11.062Z,25.48
2022-09-03T10:54:49.480Z,25.65
2022-09-03T10:57:28.454Z,24.93
2022-09-03T11:00:08.649Z,23.71
2022-09-03T11:03:12.744Z,24.46
2022-09-03T11:05:43.783Z,26.90
2022-09-03T11:08:13.825Z,27.14
2022-09-03T11:10:43.577Z,27.11
2022-09-03T11:13:14.427Z,26.28
2022-09-03T11:15:46.932Z,25.72
2022-09-03T11:18:19.209Z,25.26
2022-09-03T11:20:49.313Z,24.42
2022-09-03T11:23:18.480Z,25.90
2022-09-03T11:25:51.321Z,26.79
2022-09-03T11:28:29.461Z,25.33
2022-09-03T11:31:13.710Z,24.87
2022-09-03T11:33:43.939Z,25.81
2022-09-03T11:36:12.250Z,25.58
2022-09-03T11:38:40.522Z,26.45
2022-09-03T11:41:14.336Z,26.17
2022-09-03T11:43:43.941Z,27.34
2022-09-03T11:46:15.884Z,27.20
2022-09-03T11:48:45.422Z,27.34
2022-09-03T11:51:33.344Z,27.08
2022-09-03T11:54:02.524Z,27.54
2022-09-03T11:56:31.489Z,26.70
2022-09-03T11:59:19.025Z,27.54
2022-09-03T12:01:53.331Z,27.75
2022-09-03T12:04:24.954Z,27.68
2022-09-03T12:07:14.268Z,27.44
2022-09-03T12:10:14.301Z,29.11
2022-09-03T12:12:49.971Z,27.26
2022-09-03T12:15:26.721Z,27.45
2022-09-03T12:18:12.078Z,27.29
2022-09-03T12:20:40.342Z,28.57
2022-09-03T12:23:08.875Z,28.98
2022-09-03T12:25:37.921Z,30.47
2022-09-03T12:28:13.741Z,31.00
2022-09-03T12:30:41.702Z,31.34
2022-09-03T12:33:14.851Z,30.92
2022-09-03T12:35:58.878Z,31.09
2022-09-03T12:38:27.619Z,30.87
2022-09-03T12:43:52.693Z,28.37
2022-09-03T12:46:24.690Z,26.29
2022-09-03T12:52:04.743Z,24.49
2022-09-03T12:54:34.160Z,23.96
2022-09-03T12:57:02.418Z,23.94
2022-09-03T12:59:34.011Z,23.34
2022-09-03T13:02:03.894Z,22.27
2022-09-03T13:04:35.714Z,22.54
2022-09-03T13:07:06.262Z,21.92
2022-09-03T13:09:35.901Z,21.06
2022-09-03T13:12:05.821Z,21.30
2022-09-03T13:14:43.848Z,22.31
2022-09-03T13:17:25.401Z,20.85
2022-09-03T13:20:11.073Z,20.43
2022-09-03T13:22:45.906Z,19.72
2022-09-03T13:25:17.515Z,20.26
2022-09-03T13:27:53.614Z,20.05
2022-09-03T13:30:23.245Z,22.13
2022-09-03T13:32:58.072Z,20.76
2022-09-03T13:35:33.593Z,21.14
2022-09-03T13:38:09.010Z,23.12
2022-09-03T13:40:39.296Z,22.32
2022-09-03T13:43:22.324Z,21.90
2022-09-03T13:45:56.061Z,21.75
2022-09-03T13:48:44.834Z,22.74
2022-09-03T13:51:17.521Z,25.04
2022-09-03T13:53:52.656Z,22.15
2022-09-03T13:56:31.088Z,20.26
2022-09-03T13:59:07.053Z,19.39
2022-09-03T14:01:44.691Z,20.76
2022-09-03T14:04:20.101Z,21.70
2022-09-03T14:06:56.360Z,22.14
2022-09-03T14:09:33.987Z,23.79
2022-09-03T14:12:06.596Z,25.01
2022-09-03T14:14:42.865Z,27.05
2022-09-03T14:17:14.940Z,28.34
2022-09-03T14:19:48.672Z,27.90
2022-09-03T14:22:22.173Z,27.87
2022-09-03T14:24:52.569Z,27.36
2022-09-03T14:27:30.782Z,26.94
2022-09-03T14:30:01.816Z,27.03
2022-09-03T14:32:32.196Z,28.02
2022-09-03T14:35:14.176Z,27.55
2022-09-03T14:37:58.904Z,27.50
2022-09-03T14:40:30.830Z,29.73
2022-09-03T14:43:10.733Z,30.67
2022-09-03T14:45:53.867Z,30.96
2022-09-03T14:48:33.962Z,31.23
2022-09-03T14:51:17.709Z,31.35
2022-09-03T14:54:33.625Z,31.44
2022-09-03T14:57:13.276Z,31.75
2022-09-03T14:59:57.383Z,30.68
2022-09-03T15:02:51.373Z,30.44
2022-09-03T15:05:29.368Z,30.62
2022-09-03T15:08:00.441Z,30.68
2022-09-03T15:10:36.434Z,30.53
2022-09-03T15:13:11.810Z,31.11
2022-09-03T15:15:52.650Z,30.27
2022-09-03T15:18:27.209Z,31.20
2022-09-03T15:20:56.152Z,30.86
2022-09-03T15:23:49.855Z,31.04
2022-09-03T15:26:33.513Z,30.30
2022-09-03T15:29:28.669Z,30.92
2022-09-03T15:32:02.081Z,30.36
2022-09-03T15:34:55.250Z,31.14
2022-09-03T15:37:27.114Z,31.21
2022-09-03T15:40:02.179Z,31.01
2022-09-03T15:42:32.173Z,30.85
2022-09-03T15:45:05.200Z,31.07
2022-09-03T15:47:50.719Z,31.11
2022-09-03T15:50:30.177Z,31.71
2022-09-03T15:53:03.720Z,30.79
2022-09-03T15:55:37.109Z,31.29
2022-09-03T15:58:14.352Z,31.56
2022-09-03T16:00:54.122Z,31.13
2022-09-03T16:03:34.585Z,31.86
2022-09-03T16:06:05.615Z,31.98
2022-09-03T16:08:39.655Z,31.80
2022-09-03T16:11:10.155Z,31.88
2022-09-03T16:13:51.906Z,31.34
2022-09-03T16:16:25.075Z,31.73
2022-09-03T16:19:02.176Z,32.50
2022-09-03T16:21:36.667Z,33.22
2022-09-03T16:24:06.960Z,33.34
2022-09-03T16:26:37.742Z,33.27
2022-09-03T16:29:10.794Z,33.02
2022-09-03T16:31:50.970Z,32.96
2022-09-03T16:34:26.479Z,33.54
2022-09-03T16:37:00.547Z,33.47
2022-09-03T16:39:37.916Z,33.49
2022-09-03T16:42:12.722Z,33.50
2022-09-03T16:44:51.941Z,33.59
2022-09-03T16:47:28.205Z,33.67
2022-09-03T16:50:04.592Z,32.92
2022-09-03T16:52:42.469Z,33.27
2022-09-03T16:55:21.353Z,33.70
2022-09-03T16:58:09.694Z,33.37
2022-09-03T17:00:49.256Z,33.19
2022-09-03T17:03:35.200Z,33.19
2022-09-03T17:06:21.670Z,33.58
2022-09-03T17:08:58.408Z,33.62
2022-09-03T17:11:39.001Z,33.70
2022-09-03T17:14:19.129Z,33.24
2022-09-03T17:16:59.443Z,33.97
2022-09-03T17:19:33.368Z,34.17
2022-09-03T17:22:10.726Z,33.80
2022-09-03T17:24:42.072Z,34.02
2022-09-03T17:27:33.111Z,34.62
2022-09-03T17:30:09.017Z,33.97
2022-09-03T17:33:17.063Z,34.56
2022-09-03T17:35:51.463Z,35.21
2022-09-03T17:38:27.523Z,34.77
2022-09-03T17:41:05.732Z,35.14
2022-09-03T17:43:42.460Z,35.15
2022-09-03T17:46:22.570Z,35.27
2022-09-03T17:48:53.573Z,35.32
2022-09-03T17:51:37.691Z,35.43
2022-09-03T17:54:08.585Z,36.17
2022-09-03T17:56:44.847Z,36.04
2022-09-03T17:59:18.930Z,35.94
2022-09-03T18:01:52.523Z,36.07
2022-09-03T18:04:35.737Z,36.47
2022-09-03T18:07:12.125Z,36.49
2022-09-03T18:09:44.114Z,36.41
2022-09-03T18:12:14.627Z,36.84
2022-09-03T18:14:50.544Z,36.88
2022-09-03T18:17:26.705Z,36.47
2022-09-03T18:20:19.684Z,36.75
2022-09-03T18:23:08.931Z,37.28
2022-09-03T18:25:56.376Z,37.29
2022-09-03T18:28:48.193Z,37.35
2022-09-03T18:31:34.714Z,37.39
2022-09-03T18:34:21.910Z,37.76
2022-09-03T18:37:08.922Z,38.00
2022-09-03T18:39:54.404Z,38.25
2022-09-03T18:42:45.204Z,38.59
2022-09-03T18:46:07.969Z,38.76
2022-09-03T18:48:47.941Z,38.65
2022-09-03T18:51:44.086Z,38.61
2022-09-03T18:55:06.247Z,39.28
2022-09-03T18:57:51.848Z,39.50
2022-09-03T19:00:37.697Z,40.20
2022-09-03T19:03:38.592Z,39.95
2022-09-03T19:06:34.628Z,40.56
2022-09-03T19:09:26.845Z,40.50
2022-09-03T19:12:24.895Z,41.09
2022-09-03T19:15:14.527Z,41.24
2022-09-03T19:18:15.672Z,40.84
2022-09-03T19:21:07.356Z,41.41
2022-09-03T19:23:53.318Z,41.43
2022-09-03T19:26:49.362Z,41.75
2022-09-03T19:29:42.373Z,41.85
2022-09-03T19:32:32.985Z,42.21
2022-09-03T19:35:31.583Z,42.65
2022-09-03T19:38:24.677Z,42.69
2022-09-03T19:41:20.148Z,42.39
2022-09-03T19:44:17.409Z,42.73
2022-09-03T19:47:08.648Z,43.04
2022-09-03T19:50:02.566Z,42.78
2022-09-03T19:52:55.075Z,43.09
2022-09-03T19:55:44.472Z,43.93
2022-09-03T19:58:43.085Z,43.37
2022-09-03T20:01:29.191Z,43.66
2022-09-03T20:04:19.744Z,43.98
2022-09-03T20:07:06.082Z,44.12
2022-09-03T20:09:55.053Z,44.39
2022-09-03T20:12:25.453Z,44.68
2022-09-03T20:14:53.495Z,44.54
2022-09-03T20:17:25.780Z,45.03
2022-09-03T20:20:08.675Z,45.01
2022-09-03T20:22:41.738Z,45.06
2022-09-03T20:25:21.088Z,45.77
2022-09-03T20:27:55.078Z,45.64
2022-09-03T20:30:24.237Z,46.20
2022-09-03T20:33:22.655Z,46.19
2022-09-03T20:36:00.332Z,46.53
2022-09-03T20:38:41.392Z,47.00
2022-09-03T20:41:16.980Z,47.15
2022-09-03T20:44:00.142Z,47.21
2022-09-03T20:46:40.231Z,47.79
2022-09-03T20:49:20.081Z,48.37
2022-09-03T20:51:53.598Z,48.41
2022-09-03T20:54:23.406Z,48.57
2022-09-03T20:57:06.554Z,48.72
2022-09-03T20:59:44.449Z,49.28
2022-09-03T21:02:21.036Z,50.27
2022-09-03T21:04:53.600Z,50.91
2022-09-03T21:07:35.125Z,51.34
2022-09-03T21:10:08.284Z,51.63
2022-09-03T21:12:42.677Z,51.19
2022-09-03T21:15:17.155Z,51.65
2022-09-03T21:17:54.244Z,52.35
2022-09-03T21:20:28.802Z,52.75
2022-09-03T21:23:12.192Z,52.79
2022-09-03T21:25:44.249Z,53.44
2022-09-03T21:28:15.525Z,53.02
2022-09-03T21:30:48.321Z,53.11
2022-09-03T21:33:21.299Z,52.38
2022-09-03T21:35:52.686Z,52.39
2022-09-03T21:38:23.853Z,51.98
2022-09-03T21:40:57.012Z,51.33
2022-09-03T21:43:28.273Z,51.41
2022-09-03T21:46:01.003Z,51.52
2022-09-03T21:48:35.661Z,51.37
2022-09-03T21:51:07.381Z,51.67
2022-09-03T21:53:43.194Z,51.82
2022-09-03T21:56:30.243Z,52.05
2022-09-03T21:59:08.915Z,52.92
2022-09-03T22:01:46.339Z,52.66
2022-09-03T22:04:14.262Z,52.24
2022-09-03T22:06:46.900Z,52.94
2022-09-03T22:09:21.347Z,52.21
2022-09-03T22:11:53.433Z,52.10
2022-09-03T22:14:21.444Z,52.28
2022-09-03T22:16:53.474Z,51.99
2022-09-03T22:19:21.400Z,51.71
2022-09-03T22:21:57.108Z,52.44
2022-09-03T22:24:36.164Z,52.54
2022-09-03T22:27:09.623Z,52.15
2022-09-03T22:29:43.976Z,52.41
2022-09-03T22:32:27.616Z,52.68
2022-09-03T22:35:23.001Z,52.68
2022-09-03T22:38:03.210Z,52.72
2022-09-03T22:40:38.255Z,52.54
2022-09-03T22:43:36.393Z,52.63
2022-09-03T22:46:07.561Z,52.72
2022-09-03T22:48:53.239Z,52.65
2022-09-03T22:51:22.030Z,52.21
2022-09-03T22:54:04.038Z,52.34
2022-09-03T22:56:35.712Z,52.21
2022-09-03T22:59:05.880Z,52.19
2022-09-03T23:01:38.044Z,51.93
2022-09-03T23:04:12.810Z,51.96
2022-09-03T23:06:50.981Z,51.64
2022-09-03T23:09:21.145Z,51.85
2022-09-03T23:11:53.483Z,51.78
2022-09-03T23:14:24.519Z,52.30
2022-09-03T23:16:55.970Z,53.18
2022-09-03T23:19:30.410Z,53.26
2022-09-03T23:22:01.379Z,52.96
2022-09-03T23:24:32.337Z,53.75
2022-09-03T23:27:04.456Z,54.13
2022-09-03T23:29:35.963Z,54.18
2022-09-03T23:32:05.282Z,54.28
2022-09-03T23:34:33.878Z,54.77
2022-09-03T23:37:35.022Z,55.71
2022-09-03T23:40:14.462Z,56.64
2022-09-03T23:43:05.538Z,56.95
2022-09-03T23:45:40.244Z,57.56
2022-09-03T23:48:18.296Z,57.70
2022-09-03T23:50:49.347Z,57.98
2022-09-03T23:53:26.798Z,58.19
2022-09-03T23:56:14.860Z,57.71
2022-09-03T23:58:56.208Z,58.42
